Time;durP1;ratioP1;P1;durP2;ratioP2;P2;SDS_P1;SDS_P2;PMS_P1;PMS_P2;Temp;Humidity;BMP_temperature;BMP_pressure;BME280_temperature;BME280_humidity;BME280_pressure;Samples;Min_cycle;Max_cycle;Signal;HPM_P1;HPM_P2
2023/08/24 00:02:26;;;;;;;1.20;1.20;;;;;19.60;96310.00;;;;5134122;27;20189;-58
2023/08/24 00:04:53;;;;;;;1.87;1.60;;;;;19.50;96310.00;;;;5134138;27;20603;-58
2023/08/24 00:07:22;;;;;;;1.33;1.23;;;;;19.40;96306.00;;;;5133978;27;20216;-59
2023/08/24 00:09:49;;;;;;;1.30;1.30;;;;;19.40;96303.00;;;;5134037;27;20267;-58
2023/08/24 00:12:16;;;;;;;1.03;1.03;;;;;19.40;96300.00;;;;5133942;27;20207;-59
2023/08/24 00:14:44;;;;;;;1.13;1.13;;;;;19.20;96299.00;;;;5134000;27;20593;-58
2023/08/24 00:17:11;;;;;;;1.47;1.37;;;;;19.10;96297.00;;;;5133446;27;20209;-58
2023/08/24 00:19:39;;;;;;;1.83;1.73;;;;;19.10;96298.00;;;;5134162;27;20224;-58
2023/08/24 00:22:06;;;;;;;1.20;1.20;;;;;19.00;96296.00;;;;5133806;28;20185;-58
2023/08/24 00:24:35;;;;;;;1.97;1.87;;;;;19.10;96297.00;;;;5134274;28;20676;-58
2023/08/24 00:27:02;;;;;;;1.40;1.30;;;;;19.10;96300.00;;;;5133823;28;20209;-58
2023/08/24 00:29:30;;;;;;;1.17;1.13;;;;;19.10;96289.00;;;;5133681;28;20246;-58
2023/08/24 00:31:57;;;;;;;1.37;1.30;;;;;19.20;96289.00;;;;5134109;28;20193;-58
2023/08/24 00:34:26;;;;;;;1.60;1.60;;;;;19.00;96287.00;;;;5134546;28;20582;-59
2023/08/24 00:36:53;;;;;;;1.37;1.30;;;;;18.90;96277.00;;;;5133685;28;20729;-58
2023/08/24 00:39:20;;;;;;;2.17;2.00;;;;;19.00;96275.00;;;;5133762;28;20196;-58
2023/08/24 00:41:49;;;;;;;1.50;1.40;;;;;18.90;96264.00;;;;5133779;28;20211;-58
2023/08/24 00:44:17;;;;;;;2.43;2.27;;;;;18.80;96259.00;;;;5133617;28;20644;-59
2023/08/24 00:46:44;;;;;;;1.67;1.57;;;;;18.90;96255.00;;;;5133821;28;20236;-58
2023/08/24 00:49:12;;;;;;;2.57;1.93;;;;;19.00;96248.00;;;;5133684;28;20676;-58
2023/08/24 00:51:40;;;;;;;1.00;1.00;;;;;18.90;96249.00;;;;5132172;28;20196;-58
2023/08/24 00:54:08;;;;;;;1.53;1.43;;;;;18.90;96258.00;;;;5133648;28;20190;-59
2023/08/24 00:56:36;;;;;;;1.10;1.10;;;;;18.80;96249.00;;;;5133472;28;20717;-58
2023/08/24 00:59:05;;;;;;;1.57;1.47;;;;;18.80;96256.00;;;;5133529;28;20193;-58
2023/08/24 01:01:32;;;;;;;1.43;1.43;;;;;18.80;96254.00;;;;5133717;28;20527;-58
2023/08/24 01:03:59;;;;;;;1.00;1.00;;;;;18.80;96248.00;;;;5133355;28;20213;-58
2023/08/24 01:06:27;;;;;;;1.90;1.77;;;;;18.60;96248.00;;;;5133662;28;20568;-58
2023/08/24 01:08:54;;;;;;;9.23;1.80;;;;;18.50;96244.00;;;;5133294;28;20197;-58
2023/08/24 01:11:28;;;;;;;1.00;1.00;;;;;18.60;96239.00;;;;5133387;28;20660;-58
2023/08/24 01:14:14;;;;;;;1.40;1.30;;;;;18.70;96240.00;;;;5133805;28;20180;-58
2023/08/24 01:16:45;;;;;;;1.10;1.10;;;;;18.60;96249.00;;;;5133358;28;20236;-58
2023/08/24 01:19:26;;;;;;;1.33;1.30;;;;;18.60;96247.00;;;;5133544;28;20178;-58
2023/08/24 01:21:56;;;;;;;1.50;1.40;;;;;18.50;96246.00;;;;5133910;28;20178;-58
2023/08/24 01:24:37;;;;;;;1.37;1.27;;;;;18.50;96239.00;;;;5133723;28;20737;-58
2023/08/24 01:27:06;;;;;;;1.30;1.23;;;;;18.40;96238.00;;;;5133341;27;20222;-58
2023/08/24 01:29:34;;;;;;;1.33;1.23;;;;;18.30;96240.00;;;;5136652;27;20193;-58
2023/08/24 01:32:01;;;;;;;1.30;1.30;;;;;18.40;96239.00;;;;5137029;27;20213;-58
2023/08/24 01:34:29;;;;;;;1.30;1.30;;;;;18.30;96229.00;;;;5137085;27;20192;-58
2023/08/24 01:36:56;;;;;;;1.87;1.57;;;;;18.40;96231.00;;;;5136948;27;20578;-58
2023/08/24 01:39:33;;;;;;;1.10;1.10;;;;;18.30;96222.00;;;;5136871;27;20186;-58
2023/08/24 01:42:06;;;;;;;3.10;1.73;;;;;18.40;96233.00;;;;5137240;27;20189;-58
2023/08/24 01:44:38;;;;;;;1.37;1.30;;;;;18.50;96240.00;;;;5136862;27;20197;-58
2023/08/24 01:47:11;;;;;;;1.67;1.57;;;;;18.60;96238.00;;;;5136623;27;20212;-58
2023/08/24 01:49:39;;;;;;;1.00;1.00;;;;;18.50;96238.00;;;;5136593;27;20185;-58
2023/08/24 01:52:08;;;;;;;1.17;1.13;;;;;18.40;96246.00;;;;5136833;27;20185;-58
2023/08/24 01:54:35;;;;;;;1.73;1.63;;;;;18.30;96239.00;;;;5136562;27;20201;-58
2023/08/24 01:57:05;;;;;;;1.63;1.57;;;;;18.30;96234.00;;;;5136380;27;20209;-58
2023/08/24 01:59:34;;;;;;;1.77;1.67;;;;;18.30;96234.00;;;;5136284;27;20186;-58
2023/08/24 02:02:01;;;;;;;1.77;1.67;;;;;18.40;96235.00;;;;5136545;27;20189;-58
2023/08/24 02:04:28;;;;;;;1.90;1.70;;;;;18.40;96222.00;;;;5136140;27;20571;-58
2023/08/24 02:06:56;;;;;;;2.57;2.37;;;;;18.40;96221.00;;;;5136400;27;20696;-59
2023/08/24 02:09:23;;;;;;;0.93;0.93;;;;;18.20;96229.00;;;;5136755;27;20185;-58
2023/08/24 02:11:50;;;;;;;2.23;1.90;;;;;18.10;96227.00;;;;5136599;27;20660;-59
2023/08/24 02:14:18;;;;;;;1.67;1.57;;;;;18.00;96233.00;;;;5136396;27;20192;-59
2023/08/24 02:16:47;;;;;;;1.23;1.23;;;;;17.90;96234.00;;;;5134935;27;20656;-58
2023/08/24 02:19:14;;;;;;;1.77;1.67;;;;;17.90;96230.00;;;;5135427;27;20190;-58
2023/08/24 02:21:42;;;;;;;0.90;0.90;;;;;17.90;96221.00;;;;5136187;27;20201;-58
2023/08/24 02:24:09;;;;;;;1.20;1.20;;;;;17.90;96234.00;;;;5136586;27;20189;-58
2023/08/24 02:26:37;;;;;;;1.87;1.77;;;;;17.60;96227.00;;;;5135770;27;20213;-59
2023/08/24 02:29:04;;;;;;;1.40;1.40;;;;;17.70;96223.00;;;;5135887;27;20224;-58
2023/08/24 02:31:32;;;;;;;0.97;0.97;;;;;17.80;96211.00;;;;5136191;27;20242;-58
2023/08/24 02:34:01;;;;;;;1.83;1.73;;;;;17.80;96212.00;;;;5135677;27;20194;-59
2023/08/24 02:36:28;;;;;;;1.37;1.33;;;;;17.80;96211.00;;;;5135726;27;20228;-58
2023/08/24 02:38:56;;;;;;;1.13;1.07;;;;;17.90;96215.00;;;;5135392;27;20197;-58
2023/08/24 02:41:23;;;;;;;1.50;1.40;;;;;17.90;96230.00;;;;5135530;27;20186;-58
2023/08/24 02:43:50;;;;;;;1.33;1.33;;;;;18.00;96240.00;;;;5136083;27;20194;-59
2023/08/24 02:46:18;;;;;;;2.33;2.13;;;;;17.50;96233.00;;;;5135507;27;20708;-58
2023/08/24 02:48:45;;;;;;;1.70;1.60;;;;;17.60;96215.00;;;;5135819;27;20221;-58
2023/08/24 02:51:15;;;;;;;1.50;1.40;;;;;17.80;96215.00;;;;5135549;27;20193;-58
2023/08/24 02:53:42;;;;;;;1.60;1.50;;;;;17.70;96209.00;;;;5135704;27;20668;-58
2023/08/24 02:56:09;;;;;;;1.43;1.27;;;;;17.80;96200.00;;;;5135176;27;20228;-58
2023/08/24 02:58:37;;;;;;;1.77;1.67;;;;;17.80;96205.00;;;;5135230;27;20197;-58
2023/08/24 03:01:07;;;;;;;1.90;1.80;;;;;17.80;96192.00;;;;5135422;27;20190;-58
2023/08/24 03:03:35;;;;;;;1.67;1.57;;;;;17.80;96189.00;;;;5135043;27;20220;-58
2023/08/24 03:06:04;;;;;;;1.40;1.33;;;;;17.80;96174.00;;;;5134784;27;20266;-58
2023/08/24 03:08:34;;;;;;;1.53;1.43;;;;;17.80;96180.00;;;;5135060;27;20190;-58
2023/08/24 03:11:02;;;;;;;1.73;1.63;;;;;17.90;96177.00;;;;5134936;27;20674;-58
2023/08/24 03:13:31;;;;;;;1.03;1.03;;;;;18.00;96184.00;;;;5134928;27;20717;-58
2023/08/24 03:16:03;;;;;;;1.57;1.47;;;;;18.20;96182.00;;;;5135000;27;20216;-59
2023/08/24 03:18:31;;;;;;;1.83;1.73;;;;;17.90;96179.00;;;;5135128;27;20174;-58
2023/08/24 03:20:58;;;;;;;1.50;1.40;;;;;17.70;96181.00;;;;5134809;27;20189;-58
2023/08/24 03:23:26;;;;;;;12.73;1.50;;;;;17.60;96171.00;;;;5134692;27;20612;-59
2023/08/24 03:25:56;;;;;;;1.47;1.43;;;;;17.70;96166.00;;;;5134618;27;20205;-58
2023/08/24 03:28:23;;;;;;;0.77;0.77;;;;;17.60;96173.00;;;;5134985;27;20191;-58
2023/08/24 03:30:54;;;;;;;2.37;2.17;;;;;17.60;96160.00;;;;5134798;27;20212;-58
2023/08/24 03:33:21;;;;;;;1.73;1.63;;;;;17.70;96169.00;;;;5134756;27;20174;-58
2023/08/24 03:35:49;;;;;;;1.97;1.87;;;;;17.80;96160.00;;;;5134617;27;20292;-58
2023/08/24 03:38:16;;;;;;;2.07;1.87;;;;;17.90;96151.00;;;;5134819;27;20213;-58
2023/08/24 03:40:44;;;;;;;2.63;1.50;;;;;17.80;96158.00;;;;5134557;27;20189;-58
2023/08/24 03:43:13;;;;;;;1.43;1.33;;;;;17.60;96159.00;;;;5134679;27;20532;-58
2023/08/24 03:45:42;;;;;;;2.23;2.10;;;;;17.50;96151.00;;;;5134256;27;20209;-58
2023/08/24 03:48:09;;;;;;;1.20;1.20;;;;;17.40;96149.00;;;;5134429;27;20194;-58
2023/08/24 03:50:37;;;;;;;1.43;1.37;;;;;17.50;96138.00;;;;5133598;27;20193;-58
2023/08/24 03:53:05;;;;;;;2.07;1.93;;;;;17.50;96135.00;;;;5134141;27;20193;-58
2023/08/24 03:55:33;;;;;;;1.67;1.57;;;;;17.50;96134.00;;;;5134343;27;20181;-58
2023/08/24 03:58:01;;;;;;;2.03;1.93;;;;;17.40;96137.00;;;;5134431;27;20213;-58
2023/08/24 04:00:30;;;;;;;2.90;2.13;;;;;17.50;96134.00;;;;5134240;27;20200;-58
2023/08/24 04:02:58;;;;;;;0.90;0.90;;;;;17.60;96130.00;;;;5134374;27;20558;-58
2023/08/24 04:05:25;;;;;;;1.40;1.40;;;;;17.40;96127.00;;;;5134305;27;20375;-58
2023/08/24 04:07:53;;;;;;;2.33;2.13;;;;;17.50;96122.00;;;;5133940;27;20209;-58
2023/08/24 04:10:20;;;;;;;15.10;1.77;;;;;17.40;96128.00;;;;5134052;27;20200;-58
2023/08/24 04:12:48;;;;;;;1.30;1.20;;;;;17.50;96132.00;;;;5133922;27;20667;-58
2023/08/24 04:15:15;;;;;;;1.60;1.50;;;;;17.50;96124.00;;;;5134547;27;20193;-58
2023/08/24 04:17:44;;;;;;;2.50;2.30;;;;;17.50;96113.00;;;;5135766;27;20217;-58
2023/08/24 04:20:12;;;;;;;1.60;1.50;;;;;17.60;96124.00;;;;5135103;27;20198;-58
2023/08/24 04:22:40;;;;;;;1.73;1.63;;;;;17.40;96131.00;;;;5134664;27;20581;-58
2023/08/24 04:25:07;;;;;;;1.93;1.57;;;;;17.40;96127.00;;;;5134651;28;20189;-59
2023/08/24 04:27:35;;;;;;;2.00;1.70;;;;;17.50;96122.00;;;;5133854;28;20209;-58
2023/08/24 04:30:04;;;;;;;1.30;1.30;;;;;17.40;96125.00;;;;5133784;28;20197;-58
2023/08/24 04:32:33;;;;;;;1.40;1.40;;;;;17.50;96117.00;;;;5133887;28;20285;-58
2023/08/24 04:35:02;;;;;;;1.10;1.10;;;;;17.50;96117.00;;;;5133833;28;20249;-58
2023/08/24 04:37:30;;;;;;;1.70;1.60;;;;;17.50;96110.00;;;;5133868;28;20575;-58
2023/08/24 04:39:57;;;;;;;1.40;1.33;;;;;17.50;96114.00;;;;5133873;28;20192;-58
2023/08/24 04:42:25;;;;;;;1.80;1.70;;;;;17.60;96116.00;;;;5133846;28;20552;-58
2023/08/24 04:44:52;;;;;;;4.23;1.67;;;;;17.70;96121.00;;;;5133875;28;20629;-58
2023/08/24 04:47:20;;;;;;;1.30;1.20;;;;;17.80;96127.00;;;;5133627;28;20213;-58
2023/08/24 04:49:47;;;;;;;1.90;1.73;;;;;17.70;96124.00;;;;5134048;28;20201;-58
2023/08/24 04:52:16;;;;;;;1.50;1.40;;;;;17.60;96126.00;;;;5133738;28;20291;-58
2023/08/24 04:54:43;;;;;;;1.40;1.30;;;;;17.50;96122.00;;;;5132449;28;20219;-58
2023/08/24 04:57:11;;;;;;;2.07;1.83;;;;;17.50;96124.00;;;;5133985;28;20207;-58
2023/08/24 04:59:38;;;;;;;1.20;1.20;;;;;17.60;96126.00;;;;5133685;28;20189;-58
2023/08/24 05:02:05;;;;;;;1.20;1.20;;;;;17.50;96125.00;;;;5133512;27;20505;-58
2023/08/24 05:04:33;;;;;;;1.47;1.37;;;;;17.50;96114.00;;;;5136517;27;20562;-58
2023/08/24 05:07:00;;;;;;;1.10;1.10;;;;;17.60;96119.00;;;;5137438;27;20217;-58
2023/08/24 05:09:29;;;;;;;0.93;0.93;;;;;17.60;96127.00;;;;5137430;27;20193;-58
2023/08/24 05:11:56;;;;;;;1.60;1.50;;;;;17.60;96123.00;;;;5137781;27;20560;-59
2023/08/24 05:14:24;;;;;;;1.33;1.33;;;;;17.70;96115.00;;;;5135974;27;20185;-58
2023/08/24 05:16:51;;;;;;;1.63;1.53;;;;;17.70;96104.00;;;;5137216;27;20216;-58
2023/08/24 05:19:19;;;;;;;1.73;1.63;;;;;17.70;96101.00;;;;5137144;27;20204;-58
2023/08/24 05:21:47;;;;;;;1.57;1.47;;;;;17.80;96094.00;;;;5137088;27;20216;-58
2023/08/24 05:24:14;;;;;;;1.90;1.80;;;;;17.90;96095.00;;;;5137218;27;20190;-58
2023/08/24 05:26:43;;;;;;;1.53;1.43;;;;;18.00;96090.00;;;;5136769;27;20221;-58
2023/08/24 05:29:10;;;;;;;2.67;2.47;;;;;18.00;96083.00;;;;5137116;27;20190;-58
2023/08/24 05:31:37;;;;;;;1.83;1.73;;;;;18.00;96087.00;;;;5137038;27;20686;-58
2023/08/24 05:34:05;;;;;;;1.53;1.43;;;;;18.10;96088.00;;;;5137277;27;20587;-58
2023/08/24 05:36:33;;;;;;;1.63;1.53;;;;;18.10;96090.00;;;;5136787;27;20569;-57
2023/08/24 05:39:00;;;;;;;2.90;2.13;;;;;18.10;96088.00;;;;5136713;27;20222;-57
2023/08/24 05:41:27;;;;;;;2.20;2.10;;;;;18.10;96084.00;;;;5136901;27;20216;-57
2023/08/24 05:43:57;;;;;;;1.13;1.13;;;;;18.00;96086.00;;;;5136663;27;20193;-57
2023/08/24 05:46:24;;;;;;;1.13;1.13;;;;;18.10;96091.00;;;;5136433;27;20219;-57
2023/08/24 05:48:52;;;;;;;1.27;1.27;;;;;18.20;96082.00;;;;5136507;27;20200;-57
2023/08/24 05:51:19;;;;;;;1.63;1.53;;;;;18.30;96090.00;;;;5136437;27;20192;-58
2023/08/24 05:53:46;;;;;;;2.80;2.60;;;;;18.40;96083.00;;;;5136883;27;20673;-57
2023/08/24 05:56:14;;;;;;;1.07;1.07;;;;;18.60;96089.00;;;;5136708;27;20660;-57
2023/08/24 05:58:41;;;;;;;1.60;1.50;;;;;18.70;96091.00;;;;5136356;27;20197;-57
2023/08/24 06:01:10;;;;;;;1.90;1.80;;;;;18.70;96100.00;;;;5136612;27;20193;-58
2023/08/24 06:03:38;;;;;;;1.20;1.20;;;;;18.70;96099.00;;;;5134844;27;20194;-58
2023/08/24 06:06:06;;;;;;;1.37;1.37;;;;;18.80;96088.00;;;;5136301;27;20227;-58
2023/08/24 06:08:33;;;;;;;2.00;1.90;;;;;18.90;96096.00;;;;5136369;27;20189;-58
2023/08/24 06:11:01;;;;;;;3.33;1.50;;;;;19.00;96092.00;;;;5136635;27;20193;-57
2023/08/24 06:13:28;;;;;;;1.00;1.00;;;;;18.80;96102.00;;;;5135355;27;20190;-58
2023/08/24 06:15:56;;;;;;;2.30;1.73;;;;;18.90;96089.00;;;;5136115;27;20192;-58
2023/08/24 06:18:25;;;;;;;1.80;1.47;;;;;19.00;96091.00;;;;5134815;27;20197;-58
2023/08/24 06:20:53;;;;;;;1.47;1.37;;;;;18.90;96094.00;;;;5135988;27;20193;-58
2023/08/24 06:23:21;;;;;;;1.30;1.30;;;;;18.90;96106.00;;;;5136165;27;20190;-57
2023/08/24 06:25:49;;;;;;;1.70;1.60;;;;;18.90;96111.00;;;;5135872;27;20553;-57
2023/08/24 06:28:16;;;;;;;4.13;1.23;;;;;19.00;96114.00;;;;5135671;27;20323;-57
2023/08/24 06:30:45;;;;;;;1.93;1.83;;;;;19.00;96123.00;;;;5135640;27;20197;-57
2023/08/24 06:33:13;;;;;;;1.17;1.17;;;;;19.00;96124.00;;;;5135990;27;20671;-58
2023/08/24 06:35:42;;;;;;;1.53;1.47;;;;;19.10;96129.00;;;;5135500;27;20268;-58
2023/08/24 06:38:09;;;;;;;1.63;1.53;;;;;19.20;96130.00;;;;5135965;27;20285;-58
2023/08/24 06:40:37;;;;;;;1.37;1.37;;;;;19.30;96134.00;;;;5135583;27;20284;-58
2023/08/24 06:43:05;;;;;;;2.50;2.30;;;;;19.40;96145.00;;;;5135581;27;20186;-58
2023/08/24 06:45:32;;;;;;;1.03;1.03;;;;;19.40;96150.00;;;;5134220;27;20284;-58
2023/08/24 06:48:00;;;;;;;1.43;1.40;;;;;19.30;96155.00;;;;5135264;27;20684;-58
2023/08/24 06:50:27;;;;;;;1.23;1.23;;;;;19.30;96152.00;;;;5135567;27;20196;-58
2023/08/24 06:52:56;;;;;;;1.77;1.67;;;;;19.50;96145.00;;;;5135853;27;20200;-59
2023/08/24 06:55:24;;;;;;;0.97;0.97;;;;;19.70;96128.00;;;;5135485;27;20200;-59
2023/08/24 06:57:51;;;;;;;1.97;1.87;;;;;19.90;96119.00;;;;5133823;27;20205;-58
2023/08/24 07:00:20;;;;;;;1.50;1.40;;;;;20.00;96109.00;;;;5135190;27;20242;-59
2023/08/24 07:02:48;;;;;;;1.23;1.20;;;;;20.10;96103.00;;;;5135304;27;20543;-59
2023/08/24 07:05:18;;;;;;;2.37;2.27;;;;;20.00;96105.00;;;;5135045;27;20201;-56
2023/08/24 07:07:47;;;;;;;1.53;1.43;;;;;20.20;96109.00;;;;5135055;27;20757;-59
2023/08/24 07:10:16;;;;;;;4.93;2.90;;;;;20.50;96105.00;;;;5135805;27;20648;-58
2023/08/24 07:12:44;;;;;;;1.73;1.67;;;;;20.20;96094.00;;;;5135280;27;20217;-58
2023/08/24 07:15:13;;;;;;;1.63;1.53;;;;;20.50;96085.00;;;;5134881;27;20193;-58
2023/08/24 07:17:40;;;;;;;1.10;1.10;;;;;20.60;96090.00;;;;5134941;27;20230;-58
2023/08/24 07:20:09;;;;;;;1.92;1.83;;;;;20.80;96085.00;;;;5135657;27;20258;-58
2023/08/24 07:22:37;;;;;;;1.20;1.17;;;;;20.90;96092.00;;;;5133468;27;20585;-58
2023/08/24 07:25:05;;;;;;;6.00;2.47;;;;;21.00;96094.00;;;;5134425;27;20186;-58
2023/08/24 07:27:38;;;;;;;13.87;1.93;;;;;21.20;96102.00;;;;5134491;27;20217;-58
2023/08/24 07:30:07;;;;;;;1.10;1.10;;;;;21.30;96094.00;;;;5136104;27;20174;-58
2023/08/24 07:32:34;;;;;;;18.33;1.80;;;;;21.30;96085.00;;;;5135462;27;20198;-58
2023/08/24 07:35:02;;;;;;;1.63;1.53;;;;;21.40;96089.00;;;;5134805;27;20270;-58
2023/08/24 07:37:29;;;;;;;1.43;1.33;;;;;21.60;96089.00;;;;5134812;27;20599;-58
2023/08/24 07:39:57;;;;;;;1.23;1.23;;;;;21.80;96092.00;;;;5134559;27;20676;-58
2023/08/24 07:42:24;;;;;;;1.47;1.40;;;;;21.80;96096.00;;;;5134902;27;20267;-59
2023/08/24 07:44:53;;;;;;;2.20;2.10;;;;;21.80;96099.00;;;;5134479;27;20236;-58
2023/08/24 07:47:21;;;;;;;1.20;1.20;;;;;21.80;96098.00;;;;5134247;27;20224;-58
2023/08/24 07:49:48;;;;;;;1.63;1.52;;;;;22.00;96093.00;;;;5134661;27;20194;-59
2023/08/24 07:52:16;;;;;;;3.30;1.90;;;;;22.20;96099.00;;;;5134372;27;20653;-59
2023/08/24 07:54:44;;;;;;;1.20;1.17;;;;;22.10;96101.00;;;;5134328;27;20189;-59
2023/08/24 07:57:11;;;;;;;1.10;1.10;;;;;22.30;96089.00;;;;5132754;27;20258;-58
2023/08/24 07:59:39;;;;;;;1.08;1.08;;;;;22.30;96095.00;;;;5134403;27;20193;-59
2023/08/24 08:02:09;;;;;;;5.40;1.25;;;;;22.40;96098.00;;;;5134278;27;20223;-59
2023/08/24 08:04:36;;;;;;;1.95;1.80;;;;;22.70;96109.00;;;;5134220;27;20201;-59
2023/08/24 08:07:04;;;;;;;1.88;1.52;;;;;23.10;96111.00;;;;5134378;27;20221;-59
2023/08/24 08:09:32;;;;;;;2.03;1.92;;;;;23.30;96108.00;;;;5134213;27;20221;-59
2023/08/24 08:11:59;;;;;;;1.80;1.70;;;;;23.50;96101.00;;;;5133999;27;20276;-59
2023/08/24 08:14:28;;;;;;;1.30;1.20;;;;;23.60;96107.00;;;;5134112;27;20196;-59
2023/08/24 08:16:55;;;;;;;1.30;1.25;;;;;23.80;96102.00;;;;5134112;27;20213;-59
2023/08/24 08:19:25;;;;;;;1.02;1.02;;;;;23.80;96104.00;;;;5134405;27;20208;-59
2023/08/24 08:21:52;;;;;;;1.10;1.10;;;;;23.80;96092.00;;;;5134438;27;20212;-59
2023/08/24 08:24:20;;;;;;;2.30;1.38;;;;;23.90;96094.00;;;;5134274;27;20246;-59
2023/08/24 08:26:47;;;;;;;0.88;0.88;;;;;23.90;96098.00;;;;5133711;28;20225;-59
2023/08/24 08:29:16;;;;;;;1.10;1.10;;;;;23.90;96087.00;;;;5133996;28;20193;-59
2023/08/24 08:31:43;;;;;;;1.52;1.25;;;;;23.90;96089.00;;;;5133866;28;20657;-59
2023/08/24 08:34:11;;;;;;;1.52;1.42;;;;;24.20;96098.00;;;;5133955;28;20215;-59
2023/08/24 08:36:40;;;;;;;1.23;1.17;;;;;24.20;96102.00;;;;5134236;27;20216;-59
2023/08/24 08:39:07;;;;;;;2.45;1.10;;;;;24.50;96104.00;;;;5138043;27;20189;-59
2023/08/24 08:41:42;;;;;;;1.88;1.75;;;;;24.60;96084.00;;;;5138008;27;20193;-59
2023/08/24 08:44:13;;;;;;;1.73;1.27;;;;;24.70;96095.00;;;;5138522;27;20213;-59
2023/08/24 08:46:42;;;;;;;2.35;1.35;;;;;24.90;96087.00;;;;5137981;27;20216;-59
2023/08/24 08:49:10;;;;;;;1.73;1.33;;;;;25.10;96091.00;;;;5137840;27;20193;-60
2023/08/24 08:51:40;;;;;;;1.48;1.38;;;;;25.40;96086.00;;;;5138043;27;20189;-59
2023/08/24 08:54:07;;;;;;;1.65;1.55;;;;;25.50;96090.00;;;;5137802;27;20199;-59
2023/08/24 08:56:35;;;;;;;1.15;1.15;;;;;25.60;96089.00;;;;5137636;27;20281;-59
2023/08/24 08:59:07;;;;;;;2.47;2.28;;;;;25.50;96071.00;;;;5137645;27;20189;-59
2023/08/24 09:01:34;;;;;;;1.90;1.80;;;;;25.60;96081.00;;;;5137967;27;20174;-59
2023/08/24 09:04:02;;;;;;;1.02;1.00;;;;;25.70;96074.00;;;;5136178;27;20197;-59
2023/08/24 09:06:30;;;;;;;1.08;1.08;;;;;26.10;96075.00;;;;5137299;27;20213;-59
2023/08/24 09:08:59;;;;;;;1.00;0.95;;;;;26.10;96072.00;;;;5137408;27;20200;-59
2023/08/24 09:11:27;;;;;;;1.58;1.48;;;;;26.20;96056.00;;;;5137669;27;20200;-59
2023/08/24 09:13:54;;;;;;;1.60;1.50;;;;;26.20;96053.00;;;;5136189;27;20628;-60
2023/08/24 09:16:22;;;;;;;2.22;1.95;;;;;26.20;96048.00;;;;5137288;27;20205;-59
2023/08/24 09:18:49;;;;;;;1.60;1.50;;;;;26.20;96047.00;;;;5135989;27;20680;-59
2023/08/24 09:21:17;;;;;;;1.35;1.27;;;;;26.50;96052.00;;;;5137287;27;20196;-59
2023/08/24 09:23:46;;;;;;;0.85;0.85;;;;;26.70;96041.00;;;;5137492;27;20553;-59
2023/08/24 09:26:15;;;;;;;1.85;1.60;;;;;26.90;96039.00;;;;5135690;27;20719;-60
2023/08/24 09:28:44;;;;;;;1.52;1.42;;;;;27.10;96038.00;;;;5137310;27;20217;-59
2023/08/24 09:31:14;;;;;;;1.33;1.23;;;;;27.20;96036.00;;;;5137097;27;20238;-59
2023/08/24 09:33:46;;;;;;;0.93;0.93;;;;;27.10;96028.00;;;;5137000;27;20228;-59
2023/08/24 09:36:15;;;;;;;3.58;1.33;;;;;27.20;96026.00;;;;5135749;27;20696;-60
2023/08/24 09:38:48;;;;;;;1.65;1.55;;;;;27.50;96021.00;;;;5136996;27;20641;-58
2023/08/24 09:41:17;;;;;;;3.03;1.60;;;;;27.20;96015.00;;;;5136805;27;20257;-58
2023/08/24 09:43:45;;;;;;;2.25;1.98;;;;;27.40;96007.00;;;;5136793;27;20192;-59
2023/08/24 09:46:12;;;;;;;2.95;1.92;;;;;27.70;96006.00;;;;5136609;27;20697;-60
2023/08/24 09:48:40;;;;;;;1.27;1.25;;;;;27.80;95999.00;;;;5135365;27;20224;-59
2023/08/24 09:51:08;;;;;;;1.35;1.25;;;;;27.90;95998.00;;;;5136661;27;20570;-59
2023/08/24 09:53:40;;;;;;;1.55;1.45;;;;;28.30;95992.00;;;;5136614;27;20202;-60
2023/08/24 09:56:09;;;;;;;1.50;1.40;;;;;28.40;95982.00;;;;5136518;27;20217;-59
2023/08/24 09:58:38;;;;;;;1.20;1.20;;;;;28.50;95978.00;;;;5136757;27;20289;-60
2023/08/24 10:01:06;;;;;;;1.20;1.20;;;;;28.40;95970.00;;;;5136343;27;20181;-59
2023/08/24 10:03:37;;;;;;;1.58;1.48;;;;;28.70;95973.00;;;;5136843;27;20194;-60
2023/08/24 10:06:06;;;;;;;3.88;1.80;;;;;28.60;95958.00;;;;5136481;27;20215;-58
2023/08/24 10:08:36;;;;;;;2.28;1.35;;;;;28.40;95964.00;;;;5136294;27;20213;-57
2023/08/24 10:11:06;;;;;;;1.52;1.42;;;;;28.60;95967.00;;;;5136217;27;20479;-57
2023/08/24 10:13:40;;;;;;;2.38;1.73;;;;;28.60;95957.00;;;;5136415;27;20189;-59
2023/08/24 10:16:09;;;;;;;1.77;1.67;;;;;28.90;95954.00;;;;5136156;27;20232;-60
2023/08/24 10:18:38;;;;;;;3.35;2.30;;;;;28.80;95948.00;;;;5136144;27;20208;-59
2023/08/24 10:21:06;;;;;;;1.40;1.30;;;;;29.10;95942.00;;;;5136350;27;20212;-59
2023/08/24 10:23:36;;;;;;;1.77;1.67;;;;;29.20;95940.00;;;;5136058;27;20192;-59
2023/08/24 10:26:06;;;;;;;10.35;1.30;;;;;29.30;95943.00;;;;5136166;27;20680;-59
2023/08/24 10:28:34;;;;;;;1.77;1.67;;;;;29.30;95934.00;;;;5136246;27;20288;-57
2023/08/24 10:31:04;;;;;;;4.05;1.77;;;;;29.80;95934.00;;;;5136128;27;20185;-59
2023/08/24 10:33:34;;;;;;;1.08;1.08;;;;;30.00;95935.00;;;;5135682;27;20276;-59
2023/08/24 10:36:01;;;;;;;1.33;1.27;;;;;30.10;95942.00;;;;5134329;27;20213;-59
2023/08/24 10:38:30;;;;;;;1.70;1.35;;;;;30.10;95930.00;;;;5135758;27;20248;-58
2023/08/24 10:41:04;;;;;;;1.92;1.83;;;;;30.10;95926.00;;;;5135870;27;20648;-59
2023/08/24 10:43:35;;;;;;;1.48;1.38;;;;;29.80;95925.00;;;;5136209;27;20205;-58
2023/08/24 10:46:04;;;;;;;2.15;1.40;;;;;30.10;95919.00;;;;5134060;27;20213;-58
2023/08/24 10:48:52;;;;;;;1.17;1.17;;;;;30.20;95914.00;;;;5135793;27;20213;-58
2023/08/24 10:51:23;;;;;;;1.05;1.05;;;;;30.50;95921.00;;;;5135342;27;20201;-58
2023/08/24 10:53:53;;;;;;;1.80;1.70;;;;;30.60;95907.00;;;;5135686;27;20181;-58
2023/08/24 10:56:22;;;;;;;1.30;1.20;;;;;30.40;95900.00;;;;5136492;27;20213;-58
2023/08/24 10:59:13;;;;;;;1.30;1.30;;;;;30.80;95901.00;;;;5135621;27;20194;-58
2023/08/24 11:01:43;;;;;;;1.70;1.60;;;;;30.90;95895.00;;;;5135289;27;20607;-58
2023/08/24 11:04:12;;;;;;;1.02;1.02;;;;;31.20;95894.00;;;;5133692;27;20590;-59
2023/08/24 11:06:54;;;;;;;1.23;1.17;;;;;31.40;95887.00;;;;5135500;27;20221;-58
2023/08/24 11:09:22;;;;;;;1.27;1.27;;;;;31.40;95885.00;;;;5135098;27;20253;-58
2023/08/24 11:12:01;;;;;;;1.27;1.27;;;;;31.30;95882.00;;;;5133841;27;20221;-58
2023/08/24 11:14:29;;;;;;;1.17;1.17;;;;;31.00;95881.00;;;;5135639;27;20197;-58
2023/08/24 11:17:02;;;;;;;1.63;1.27;;;;;31.50;95878.00;;;;5134852;27;20217;-58
2023/08/24 11:19:30;;;;;;;1.70;1.60;;;;;31.60;95882.00;;;;5135042;27;20238;-58
2023/08/24 11:21:58;;;;;;;1.67;1.58;;;;;31.40;95878.00;;;;5134826;27;20189;-58
2023/08/24 11:24:26;;;;;;;1.30;1.25;;;;;31.80;95875.00;;;;5134812;27;20195;-58
2023/08/24 11:26:53;;;;;;;1.67;1.58;;;;;31.80;95868.00;;;;5134716;27;20699;-58
2023/08/24 11:29:21;;;;;;;1.92;1.83;;;;;32.30;95866.00;;;;5135004;27;20667;-59
2023/08/24 11:31:48;;;;;;;4.85;1.55;;;;;32.00;95869.00;;;;5135017;27;20196;-58
2023/08/24 11:34:18;;;;;;;1.48;1.38;;;;;32.10;95867.00;;;;5134717;27;20189;-58
2023/08/24 11:36:46;;;;;;;0.90;0.90;;;;;32.40;95869.00;;;;5134574;27;20270;-58
2023/08/24 11:39:19;;;;;;;1.63;1.52;;;;;32.70;95862.00;;;;5135174;27;20753;-58
2023/08/24 11:41:57;;;;;;;1.48;1.38;;;;;32.70;95849.00;;;;5134580;27;20177;-58
2023/08/24 11:44:24;;;;;;;1.35;1.35;;;;;32.30;95852.00;;;;5134648;27;20185;-58
2023/08/24 11:46:52;;;;;;;1.35;1.27;;;;;32.40;95869.00;;;;5134350;27;20216;-58
2023/08/24 11:49:21;;;;;;;2.80;1.80;;;;;32.50;95869.00;;;;5134428;27;20244;-58
2023/08/24 11:51:50;;;;;;;1.10;1.10;;;;;32.40;95854.00;;;;5134941;27;20196;-58
2023/08/24 11:54:20;;;;;;;1.48;1.38;;;;;32.70;95871.00;;;;5134644;27;20201;-58
2023/08/24 11:56:48;;;;;;;1.48;1.40;;;;;32.60;95862.00;;;;5134463;27;20217;-58
2023/08/24 11:59:17;;;;;;;1.90;1.80;;;;;32.20;95870.00;;;;5134346;27;20193;-58
2023/08/24 12:01:46;;;;;;;2.35;2.17;;;;;32.50;95868.00;;;;5134246;27;20189;-59
2023/08/24 12:04:13;;;;;;;3.33;2.20;;;;;32.10;95864.00;;;;5134102;27;20208;-58
2023/08/24 12:06:42;;;;;;;2.17;1.85;;;;;32.50;95850.00;;;;5134080;27;20293;-59
2023/08/24 12:09:10;;;;;;;1.20;1.20;;;;;32.40;95845.00;;;;5134223;27;20311;-58
2023/08/24 12:11:39;;;;;;;2.88;1.95;;;;;32.80;95848.00;;;;5133468;27;20190;-59
2023/08/24 12:14:09;;;;;;;1.50;1.45;;;;;32.90;95847.00;;;;5134153;27;20189;-59
2023/08/24 12:16:37;;;;;;;2.08;1.92;;;;;32.90;95834.00;;;;5134309;27;20213;-59
2023/08/24 12:19:10;;;;;;;1.58;1.48;;;;;33.10;95843.00;;;;5134050;27;20671;-59
2023/08/24 12:21:37;;;;;;;1.60;1.50;;;;;33.30;95830.00;;;;5134098;27;20711;-58
2023/08/24 12:24:08;;;;;;;3.88;2.08;;;;;33.20;95814.00;;;;5134253;27;20189;-58
2023/08/24 12:26:36;;;;;;;1.60;1.50;;;;;33.10;95818.00;;;;5134424;28;20680;-59